Udine, Italia

6:58 AM CET en Octubre 26, 2014 (GMT +0100)
Udine | Change Station
CLOSE
Current Station
Estación meteorológica personal
Location: Campoformido, FRIULI-VENEZIA GIULIA
Altura: 289 ft
Estaciones meteorológicas cercanas

Alt 289 ft 46.03 °N, 13.20 °E | Updated 1 minute ago

Clear
Despejado
50.7 ° F
Sensación térmica 50.7 ° F
N
8.0
Viento Variable Viento desde Este
Gusts 14.0 mph

Hoy
Alta -- | Baja -- ° F
--% Posibilidad de precipitaciones
Ayer
Alta -- | Baja -- ° F
Precip. -- pul
6:38 AM 5:02 PM
Creciente, 6% visible
Presión 30.24 pul
Visibilidad -9999.0 Millas
Nubes
Punto de rocío 41 ° F
Humedad 70%
Precipitaciones 0.00 pul
Espesor de la nieve No disponible.
UV 0.0 de una escala de 12
Polen No disponible.
Calidad del aire No disponible.
Flu Activity No disponible.
METAR LIPQ 260520Z VRB01KT CAVOK 04/01 Q1024

More Conditions Fewer Conditions

Presión 30.24 pul
Visibilidad -9999.0 Millas
Nubes
Punto de rocío 41 ° F
Humedad 70%
Precipitaciones 0.00 pul
Espesor de la nieve No disponible.
UV 0.0 de una escala de 12
Polen No disponible.
Calidad del aire No disponible.
Flu Activity No disponible.
METAR LIPQ 260520Z VRB01KT CAVOK 04/01 Q1024

More Conditions Fewer Conditions

10-Day Weather Forecast

Almanac

Astronomía

Oct. 26, 2014 Salida Puesta
Hora real 6:38 AM CET 5:02 PM CET
Crepúsculo civil 6:08 AM CET 5:33 PM CET
Crepúsculo náutico 5:33 AM CET 6:08 PM CET
Crepúsculo astronómico 4:58 AM CET 6:43 PM CET
Luna 9:05 AM CET 6:54 PM CET
Horas de luz 11h 25m
Horas de luz
10h 23m
Tomorrow will be 3m 0s shorter.
Creciente, 6% of the Moon is Illuminated
Hoy
Creciente
Oct 30
Cuarto creciente
Nov 6
Luna llena
Nov 14
Cuarto menguante
Nov 22
Nueva

Extremos de ayer

Máximos del país Bajas del país

Community

WunderPhotos

Upload Photos

1,765,112 ¡fotos cargadas!

Nearby

Calidad del aire

Not available.

Grosos de nieve

Not available.

Actividad de terremotos

Ciudad Distance Mag. Tiempo y dato
No hay informes recientes de la actividad sísmica.
Magnitud mínima muestra es 2,5.

Temperaturas de aguas costeras

Lugar Temperatura
Sin partes meteorológicos de las estaciones

Estaciones meteorológicas cercanas